Flight Track Log - Related Links

Times and Time Zones

All times are in EDT time to prevent confusion due to time zone crossing. See the EJA727 flight status page for this flight to view local times or setup timezone preferences in your user account.

Time Position Orientation Groundspeed Altitude Reporting Facility
EDT Latitude Longitude Course Direction KTS MPH feet Rate Location/Type
Fri 01:13:59 PM 30.2861 -97.7031 290° West 233 268 6,400  Level Houston Center
Fri 01:15:04 PM 30.3217 -97.7756 300° West 252 290 11,000 3,919 Climbing Houston Center
Fri 01:16:03 PM 30.3681 -97.8519 305° West 289 333 14,500 3,471 Climbing Houston Center
Fri 01:17:05 PM 30.4436 -97.9208 322° Northwest 341 392 18,000 3,317 Climbing Houston Center
Fri 01:18:00 PM 30.4850 -97.8588 293° West  Level FlightAware Approximate
Fri 01:18:06 PM 30.5244 -97.9961 321° Northwest 361 415 21,300  Level Houston Center
Fri 01:19:00 PM 30.5239 -97.9560 290° West  Level FlightAware Approximate
Fri 01:19:08 PM 30.6078 -98.0725 322° Northwest 373 429 24,700  Level Houston Center
Fri 01:20:10 PM 30.7053 -98.1636 321° Northwest 380 437 27,900 1,597 Climbing Houston Center
Fri 01:21:12 PM 30.7969 -98.2503 321° Northwest 412 474 28,000 49 Climbing Houston Center
Fri 01:22:13 PM 30.8983 -98.3453 321° Northwest 455 524 28,000 341 Level Houston Center
Fri 01:23:15 PM 31.0008 -98.4397 322° Northwest 463 533 28,700 1,742 Climbing Houston Center
Fri 01:24:17 PM 31.0956 -98.5292 321° Northwest 439 505 31,600 2,489 Climbing Houston Center
Fri 01:24:49 PM 31.1369 -98.5733 318° Northwest 429 494 32,600 1,630 Climbing Fort Worth Center
Fri 01:25:49 PM 31.2281 -98.6594 321° Northwest 419 482 34,100 1,500 Climbing Fort Worth Center
Fri 01:26:21 PM 31.2764 -98.6997 325° Northwest 414 476 34,900 1,468 Climbing Houston Center
Fri 01:27:23 PM 31.3669 -98.7847 321° Northwest 412 474 36,400 1,568 Climbing Houston Center
Fri 01:27:49 PM 31.4139 -98.8350 318° Northwest 413 475 37,200 1,116 Climbing Fort Worth Center
Fri 01:28:49 PM 31.4986 -98.9192 320° Northwest 401 461 38,000 400 Climbing Fort Worth Center
Fri 01:29:49 PM 31.5936 -99.0036 323° Northwest 407 468 38,000  Level Fort Worth Center
Fri 01:30:49 PM 31.6803 -99.0881 320° Northwest 413 475 38,000  Level Fort Worth Center
Fri 01:31:49 PM 31.7731 -99.1753 321° Northwest 413 475 38,000  Level Fort Worth Center
Fri 01:32:49 PM 31.8656 -99.2675 320° Northwest 423 487 38,000  Level Fort Worth Center
Fri 01:33:49 PM 31.9581 -99.3550 321° Northwest 433 498 38,000  Level Fort Worth Center
Fri 01:34:49 PM 32.0508 -99.4428 321° Northwest 428 493 38,000  Level Fort Worth Center
Fri 01:35:49 PM 32.1472 -99.5358 321° Northwest 428 493 38,000  Level Fort Worth Center
Fri 01:36:49 PM 32.2211 -99.6111 319° Northwest 439 505 38,000  Level Fort Worth Center
Fri 01:37:49 PM 32.3361 -99.7247 320° Northwest 439 505 38,000  Level Fort Worth Center
Fri 01:38:49 PM 32.4303 -99.8156 321° Northwest 444 511 38,000  Level Fort Worth Center
Fri 01:39:49 PM 32.5139 -99.9189 314° West 439 505 38,000  Level Fort Worth Center
Fri 01:40:49 PM 32.5931 -100.0319 310° West 434 499 38,000  Level Fort Worth Center
Fri 01:41:49 PM 32.6722 -100.1406 311° West 434 499 38,000 200 Level Fort Worth Center
Fri 01:42:49 PM 32.7411 -100.2364 311° West 434 499 38,400 700 Climbing Fort Worth Center
Fri 01:43:49 PM 32.8158 -100.3425 310° West 434 499 39,400 800 Climbing Fort Worth Center
Fri 01:44:49 PM 32.8906 -100.4514 309° West 429 494 40,000 300 Climbing Fort Worth Center
Fri 01:45:49 PM 32.9672 -100.5581 311° West 429 494 40,000  Level Fort Worth Center
Fri 01:46:49 PM 33.0350 -100.6744 305° West 429 494 40,000  Level Fort Worth Center
Fri 01:47:49 PM 33.0967 -100.7931 302° West 429 494 40,000  Level Fort Worth Center
Fri 01:48:49 PM 33.1581 -100.9147 301° West 424 488 40,000  Level Fort Worth Center
Fri 01:49:49 PM 33.2233 -101.0389 302° West 418 481 40,000  Level Fort Worth Center
Fri 01:50:49 PM 33.2867 -101.1608 302° West 418 481 40,000  Level Fort Worth Center
Fri 01:51:49 PM 33.3456 -101.2800 301° West 425 489 40,000  Level Fort Worth Center
Fri 01:52:49 PM 33.4064 -101.4047 300° West 425 489 40,000  Level Fort Worth Center
Fri 01:53:49 PM 33.4672 -101.5244 301° West 430 495 40,000  Level Fort Worth Center
Fri 01:54:49 PM 33.5278 -101.6494 300° West 435 501 40,000  Level Fort Worth Center
Fri 01:55:49 PM 33.5886 -101.7619 303° West 443 510 40,000  Level Fort Worth Center
Fri 01:56:49 PM 33.6508 -101.8872 301° West 443 510 40,000  Level Fort Worth Center
Fri 01:57:49 PM 33.7089 -102.0175 298° West 438 504 40,000  Level Fort Worth Center
Fri 01:58:49 PM 33.7769 -102.1486 302° West 438 504 40,000  Level Fort Worth Center
Fri 01:59:49 PM 33.8311 -102.2592 301° West 432 497 40,000  Level Fort Worth Center
Fri 02:00:57 PM 33.9050 -102.4058 301° West 438 504 40,000  Level Albuquerque Center
Fri 02:01:59 PM 33.9672 -102.5317 301° West 439 505 40,000  Level Albuquerque Center
Fri 02:03:01 PM 34.0294 -102.6617 300° West 443 510 40,000  Level Albuquerque Center
Fri 02:04:03 PM 34.0936 -102.7842 302° West 440 506 40,000  Level Albuquerque Center
Fri 02:05:05 PM 34.1686 -102.9400 300° West 446 513 40,000  Level Albuquerque Center
Fri 02:06:07 PM 34.2319 -103.0717 300° West 452 520 40,000  Level Albuquerque Center
Fri 02:07:09 PM 34.2914 -103.2028 299° West 452 520 40,000  Level Albuquerque Center
Fri 02:08:11 PM 34.3550 -103.3356 300° West 452 520 40,000  Level Albuquerque Center
Fri 02:09:13 PM 34.4194 -103.4689 300° West 454 522 40,000  Level Albuquerque Center
Fri 02:10:15 PM 34.4925 -103.6253 300° West 453 521 40,000  Level Albuquerque Center
Fri 02:11:17 PM 34.5553 -103.7603 299° West 454 522 40,000  Level Albuquerque Center
Fri 02:12:19 PM 34.6189 -103.8956 300° West 455 524 40,000  Level Albuquerque Center
Fri 02:13:21 PM 34.6822 -104.0294 300° West 453 521 40,000  Level Albuquerque Center
Fri 02:14:22 PM 34.7458 -104.1658 300° West 456 525 40,000  Level Albuquerque Center
Fri 02:15:24 PM 34.8092 -104.3017 300° West 455 524 40,000 -1,065 Level Albuquerque Center
Fri 02:16:26 PM 34.8725 -104.4392 299° West 458 527 37,800 -2,516 Descending Albuquerque Center
Fri 02:17:28 PM 34.9331 -104.5717 299° West 446 513 34,800 -2,952 Descending Albuquerque Center
Fri 02:18:30 PM 34.9964 -104.7069 300° West 448 516 31,700 -2,806 Descending Albuquerque Center
Fri 02:19:32 PM 35.0597 -104.8458 299° West 459 528 29,000 -3,048 Descending Albuquerque Center
Fri 02:20:34 PM 35.1322 -105.0039 299° West 455 524 25,400 -3,194 Descending Albuquerque Center
Fri 02:21:36 PM 35.1911 -105.1369 298° West 445 512 22,400 -2,952 Descending Albuquerque Center
Fri 02:22:38 PM 35.2497 -105.2617 300° West 430 495 19,300 -2,806 Descending Albuquerque Center
Fri 02:23:40 PM 35.3036 -105.3844 298° West 417 480 16,600 -2,488 Descending Albuquerque Center
Fri 02:24:41 PM 35.3542 -105.4947 299° West 387 445 14,200 -1,561 Descending Albuquerque Center
Fri 02:25:43 PM 35.4003 -105.6094 296° West 375 432 13,400 -1,016 Descending Albuquerque Center
Fri 02:26:45 PM 35.4375 -105.7247 292° West 368 423 12,100 -677 Descending Albuquerque Center
Fri 02:27:47 PM 35.4731 -105.8417 291° West 365 420 12,000 -532 Descending Albuquerque Center
Fri 02:28:49 PM 35.5097 -105.9547 292° West 359 413 11,000 -1,016 Descending Albuquerque Center
Fri 02:29:51 PM 35.5514 -106.0594 296° West 351 404 9,900 -1,113 Descending Albuquerque Center
Fri 02:30:53 PM 35.6414 -106.0675 356° North 297 342 8,700 -829 Descending Albuquerque Center
Fri 02:31:54 PM 35.6867 -106.0728 355° North 234 269 8,200 -780 Descending Albuquerque Center
Fri 02:32:56 PM 35.6628 -106.1014 224° Southwest 185 213 7,100 -1,065 Descending Albuquerque Center

Login

Don't have an account? Register now (free) for customized features, flight alerts, and more!